createdAt,value
2023-10-29T00:00:37.668Z,98439.63
2023-10-29T00:03:07.630Z,98449.22
2023-10-29T00:05:35.444Z,98445.78
2023-10-29T00:08:02.991Z,98444.94
2023-10-29T00:10:30.562Z,98446.16
2023-10-29T00:12:58.250Z,98441.47
2023-10-29T00:15:26.039Z,98443.91
2023-10-29T00:17:53.705Z,98442.97
2023-10-29T00:20:21.599Z,98441.13
2023-10-29T00:22:49.202Z,98432.84
2023-10-29T00:25:16.724Z,98438.69
2023-10-29T00:27:44.257Z,98444.41
2023-10-29T00:30:12.192Z,98442.09
2023-10-29T00:32:40.180Z,98441.97
2023-10-29T00:35:08.656Z,98437.06
2023-10-29T00:37:36.657Z,98443.75
2023-10-29T00:40:05.514Z,98438.50
2023-10-29T00:42:33.868Z,98431.78
2023-10-29T00:45:01.544Z,98425.69
2023-10-29T00:47:30.094Z,98423.22
2023-10-29T00:49:57.715Z,98429.31
2023-10-29T00:52:25.417Z,98418.34
2023-10-29T00:54:53.106Z,98420.78
2023-10-29T00:57:21.490Z,98425.69
2023-10-29T00:59:49.165Z,98417.34
2023-10-29T01:02:16.958Z,98412.84
2023-10-29T01:04:46.504Z,98422.13
2023-10-29T01:07:14.318Z,98416.34
2023-10-29T01:09:43.277Z,98423.59
2023-10-29T01:12:21.042Z,98427.88
2023-10-29T01:14:48.824Z,98420.72
2023-10-29T01:17:17.515Z,98427.97
2023-10-29T01:19:45.057Z,98418.94
2023-10-29T01:22:12.646Z,98434.94
2023-10-29T01:24:41.032Z,98418.47
2023-10-29T01:27:09.259Z,98425.25
2023-10-29T01:29:37.492Z,98427.50
2023-10-29T01:32:05.655Z,98425.34
2023-10-29T01:34:33.369Z,98429.50
2023-10-29T01:37:00.977Z,98434.81
2023-10-29T01:39:28.620Z,98436.84
2023-10-29T01:41:57.538Z,98443.59
2023-10-29T01:44:25.178Z,98443.75
2023-10-29T01:46:52.780Z,98434.84
2023-10-29T01:49:20.368Z,98431.66
2023-10-29T01:51:47.858Z,98427.81
2023-10-29T01:54:15.629Z,98437.59
2023-10-29T01:56:43.642Z,98439.22
2023-10-29T01:59:14.975Z,98435.38
2023-10-29T02:01:43.300Z,98447.22
2023-10-29T02:04:11.811Z,98447.84
2023-10-29T02:06:42.465Z,98452.34
2023-10-29T02:09:10.960Z,98457.72
2023-10-29T02:11:39.272Z,98461.25
2023-10-29T02:14:07.617Z,98451.69
2023-10-29T02:16:35.195Z,98451.28
2023-10-29T02:19:02.765Z,98441.53
2023-10-29T02:21:30.685Z,98451.28
2023-10-29T02:24:02.355Z,98454.94
2023-10-29T02:26:30.168Z,98454.44
2023-10-29T02:28:57.937Z,98457.59
2023-10-29T02:31:25.535Z,98458.91
2023-10-29T02:33:53.288Z,98456.59
2023-10-29T02:36:20.845Z,98461.25
2023-10-29T02:38:48.451Z,98450.25
2023-10-29T02:41:16.030Z,98452.56
2023-10-29T02:43:43.581Z,98454.56
2023-10-29T02:46:12.065Z,98454.19
2023-10-29T02:48:39.842Z,98457.09
2023-10-29T02:51:14.078Z,98447.03
2023-10-29T02:53:41.755Z,98446.03
2023-10-29T02:56:09.460Z,98444.75
2023-10-29T02:58:36.986Z,98452.25
2023-10-29T03:01:05.927Z,98450.06
2023-10-29T03:03:33.852Z,98453.78
2023-10-29T03:06:09.297Z,98450.84
2023-10-29T03:08:37.530Z,98459.81
2023-10-29T03:11:05.145Z,98455.13
2023-10-29T03:13:32.972Z,98463.47
2023-10-29T03:16:00.670Z,98457.59
2023-10-29T03:18:30.590Z,98462.56
2023-10-29T03:20:58.374Z,98459.09
2023-10-29T03:23:26.079Z,98460.28
2023-10-29T03:26:00.411Z,98478.19
2023-10-29T03:28:27.982Z,98465.34
2023-10-29T03:30:55.520Z,98474.00
2023-10-29T03:33:23.317Z,98462.72
2023-10-29T03:35:51.005Z,98474.66
2023-10-29T03:38:19.635Z,98466.63
2023-10-29T03:40:47.179Z,98468.59
2023-10-29T03:43:14.697Z,98467.78
2023-10-29T03:45:42.260Z,98462.59
2023-10-29T03:48:09.884Z,98466.59
2023-10-29T03:50:37.566Z,98461.69
2023-10-29T03:53:05.204Z,98458.13
2023-10-29T03:55:34.123Z,98467.50
2023-10-29T03:58:01.778Z,98458.88
2023-10-29T04:00:30.246Z,98453.22
2023-10-29T04:02:59.419Z,98448.03
2023-10-29T04:05:28.156Z,98451.06
2023-10-29T04:07:55.685Z,98441.16
2023-10-29T04:10:23.229Z,98452.13
2023-10-29T04:12:50.742Z,98451.34
2023-10-29T04:15:18.378Z,98456.19
2023-10-29T04:17:46.041Z,98458.06
2023-10-29T04:20:13.628Z,98457.66
2023-10-29T04:22:43.412Z,98466.78
2023-10-29T04:25:10.971Z,98461.34
2023-10-29T04:27:38.475Z,98456.84
2023-10-29T04:30:06.833Z,98456.59
2023-10-29T04:32:34.456Z,98451.50
2023-10-29T04:35:02.029Z,98459.03
2023-10-29T04:37:29.569Z,98458.44
2023-10-29T04:39:57.612Z,98450.97
2023-10-29T04:42:25.238Z,98453.03
2023-10-29T04:44:52.973Z,98459.06
2023-10-29T04:47:20.500Z,98460.72
2023-10-29T04:49:48.011Z,98460.38
2023-10-29T04:52:15.602Z,98464.44
2023-10-29T04:54:43.780Z,98465.19
2023-10-29T04:57:11.310Z,98460.50
2023-10-29T04:59:39.160Z,98454.31
2023-10-29T05:02:06.711Z,98459.09
2023-10-29T05:04:34.492Z,98455.22
2023-10-29T05:07:01.999Z,98466.34
2023-10-29T05:09:29.486Z,98459.59
2023-10-29T05:11:57.020Z,98459.84
2023-10-29T05:14:24.592Z,98454.06
2023-10-29T05:16:53.333Z,98466.94
2023-10-29T05:19:21.520Z,98476.72
2023-10-29T05:21:50.286Z,98469.22
2023-10-29T05:24:18.054Z,98470.75
2023-10-29T05:26:45.737Z,98476.69
2023-10-29T05:29:13.396Z,98481.22
2023-10-29T05:31:40.969Z,98475.25
2023-10-29T05:34:08.656Z,98475.22
2023-10-29T05:36:36.372Z,98488.66
2023-10-29T05:39:06.310Z,98475.47
2023-10-29T05:41:34.024Z,98483.84
2023-10-29T05:44:01.728Z,98491.59
2023-10-29T05:46:29.353Z,98501.69
2023-10-29T05:48:57.154Z,98489.75
2023-10-29T05:51:25.151Z,98487.19
2023-10-29T05:53:52.885Z,98486.31
2023-10-29T05:56:20.449Z,98490.56
2023-10-29T05:58:49.243Z,98486.16
2023-10-29T06:01:16.843Z,98491.28
2023-10-29T06:03:44.524Z,98489.44
2023-10-29T06:06:12.476Z,98494.34
2023-10-29T06:08:40.130Z,98491.88
2023-10-29T06:11:07.707Z,98501.41
2023-10-29T06:13:37.818Z,98499.56
2023-10-29T06:16:09.671Z,98505.38
2023-10-29T06:18:37.292Z,98512.63
2023-10-29T06:21:05.170Z,98522.50
2023-10-29T06:23:33.014Z,98523.06
2023-10-29T06:26:00.613Z,98518.75
2023-10-29T06:28:28.175Z,98514.81
2023-10-29T06:30:55.764Z,98521.78
2023-10-29T06:33:23.596Z,98525.41
2023-10-29T06:35:51.817Z,98521.56
2023-10-29T06:38:19.656Z,98519.50
2023-10-29T06:40:47.221Z,98516.16
2023-10-29T06:43:14.813Z,98526.25
2023-10-29T06:45:42.566Z,98527.38
2023-10-29T06:48:10.217Z,98531.56
2023-10-29T06:50:38.049Z,98535.53
2023-10-29T06:53:06.966Z,98536.59
2023-10-29T06:55:36.881Z,98545.25
2023-10-29T06:58:05.145Z,98537.31
2023-10-29T07:00:32.953Z,98544.88
2023-10-29T07:03:00.559Z,98539.19
2023-10-29T07:05:28.934Z,98540.16
2023-10-29T07:07:56.573Z,98543.00
2023-10-29T07:10:24.454Z,98533.53
2023-10-29T07:12:54.210Z,98537.44
2023-10-29T07:15:21.771Z,98542.78
2023-10-29T07:17:49.373Z,98549.31
2023-10-29T07:20:17.035Z,98544.28
2023-10-29T07:22:47.713Z,98548.97
2023-10-29T07:25:15.408Z,98546.75
2023-10-29T07:27:42.905Z,98550.63
2023-10-29T07:30:10.788Z,98549.63
2023-10-29T07:32:39.125Z,98545.97
2023-10-29T07:35:07.351Z,98544.41
2023-10-29T07:37:34.957Z,98533.56
2023-10-29T07:40:03.389Z,98540.66
2023-10-29T07:42:30.973Z,98542.53
2023-10-29T07:44:59.964Z,98538.75
2023-10-29T07:47:27.718Z,98532.56
2023-10-29T07:49:58.238Z,98530.41
2023-10-29T07:52:25.734Z,98538.25
2023-10-29T07:54:53.425Z,98542.47
2023-10-29T07:57:22.172Z,98540.34
2023-10-29T07:59:50.170Z,98537.38
2023-10-29T08:02:17.788Z,98545.94
2023-10-29T08:04:45.637Z,98543.50
2023-10-29T08:07:13.195Z,98531.88
2023-10-29T08:09:42.030Z,98530.47
2023-10-29T08:12:10.022Z,98531.63
2023-10-29T08:14:37.590Z,98536.97
2023-10-29T08:17:05.343Z,98544.97
2023-10-29T08:19:32.921Z,98539.53
2023-10-29T08:22:00.603Z,98545.38
2023-10-29T08:24:28.268Z,98547.34
2023-10-29T08:26:55.774Z,98548.88
2023-10-29T08:29:23.624Z,98546.66
2023-10-29T08:31:51.215Z,98548.88
2023-10-29T08:34:19.060Z,98548.19
2023-10-29T08:36:46.712Z,98551.66
2023-10-29T08:39:15.358Z,98550.50
2023-10-29T08:41:42.903Z,98544.47
2023-10-29T08:44:10.551Z,98553.09
2023-10-29T08:46:38.087Z,98550.66
2023-10-29T08:49:05.601Z,98539.63
2023-10-29T08:51:33.217Z,98550.22
2023-10-29T08:54:03.750Z,98560.31
2023-10-29T08:56:35.191Z,98558.72
2023-10-29T08:59:05.292Z,98551.50
2023-10-29T09:01:34.520Z,98560.66
2023-10-29T09:04:02.715Z,98555.41
2023-10-29T09:06:30.454Z,98564.63
2023-10-29T09:08:59.135Z,98555.78
2023-10-29T09:11:26.928Z,98561.44
2023-10-29T09:13:55.146Z,98573.50
2023-10-29T09:16:22.831Z,98569.59
2023-10-29T09:18:51.579Z,98559.16
2023-10-29T09:21:19.286Z,98560.31
2023-10-29T09:23:47.263Z,98566.16
2023-10-29T09:26:16.719Z,98548.19
2023-10-29T09:28:45.445Z,98555.59
2023-10-29T09:31:19.520Z,98547.00
2023-10-29T09:33:48.772Z,98551.00
2023-10-29T09:36:17.733Z,98553.41
2023-10-29T09:38:45.427Z,98555.63
2023-10-29T09:41:16.852Z,98553.78
2023-10-29T09:43:45.066Z,98539.56
2023-10-29T09:46:12.877Z,98536.25
2023-10-29T09:48:43.417Z,98541.47
2023-10-29T09:51:11.195Z,98537.81
2023-10-29T09:53:43.429Z,98533.81
2023-10-29T09:56:11.907Z,98541.50
2023-10-29T09:58:39.972Z,98540.66
2023-10-29T10:01:08.837Z,98530.50
2023-10-29T10:03:37.608Z,98535.19
2023-10-29T10:06:07.266Z,98529.88
2023-10-29T10:08:34.880Z,98520.59
2023-10-29T10:11:03.376Z,98531.25
2023-10-29T10:13:42.609Z,98520.47
2023-10-29T10:16:16.111Z,98525.34
2023-10-29T10:18:52.776Z,98522.16
2023-10-29T10:21:23.107Z,98518.75
2023-10-29T10:23:52.820Z,98513.88
2023-10-29T10:26:40.194Z,98514.19
2023-10-29T10:29:09.572Z,98522.84
2023-10-29T10:31:37.335Z,98505.22
2023-10-29T10:34:19.174Z,98502.94
2023-10-29T10:36:51.790Z,98502.00
2023-10-29T10:39:24.313Z,98494.25
2023-10-29T10:41:51.914Z,98487.72
2023-10-29T10:44:20.776Z,98489.34
2023-10-29T10:46:49.045Z,98499.31
2023-10-29T10:49:17.760Z,98500.22
2023-10-29T10:51:47.205Z,98498.09
2023-10-29T10:54:19.004Z,98508.25
2023-10-29T10:56:47.499Z,98491.91
2023-10-29T10:59:15.617Z,98496.09
2023-10-29T11:01:43.310Z,98492.47
2023-10-29T11:04:11.543Z,98492.75
2023-10-29T11:06:43.817Z,98480.94
2023-10-29T11:09:14.440Z,98479.03
2023-10-29T11:11:50.940Z,98488.44
2023-10-29T11:14:19.828Z,98475.59
2023-10-29T11:16:52.781Z,98479.84
2023-10-29T11:19:47.046Z,98486.06
2023-10-29T11:22:20.548Z,98493.72
2023-10-29T11:25:13.077Z,98474.28
2023-10-29T11:27:49.858Z,98483.38
2023-10-29T11:30:19.589Z,98478.94
2023-10-29T11:32:47.944Z,98481.16
2023-10-29T11:35:15.650Z,98486.94
2023-10-29T11:37:44.328Z,98467.13
2023-10-29T11:40:27.076Z,98478.84
2023-10-29T11:42:56.419Z,98475.84
2023-10-29T11:45:35.661Z,98473.00
2023-10-29T11:48:12.882Z,98470.81
2023-10-29T11:50:41.883Z,98476.97
2023-10-29T11:53:27.948Z,98461.97
2023-10-29T11:55:58.694Z,98472.97
2023-10-29T11:58:27.885Z,98456.06
2023-10-29T12:00:56.064Z,98461.00
2023-10-29T12:03:24.325Z,98457.81
2023-10-29T12:05:56.409Z,98463.28
2023-10-29T12:08:24.791Z,98449.25
2023-10-29T12:10:56.719Z,98441.78
2023-10-29T12:13:24.642Z,98446.31
2023-10-29T12:15:58.222Z,98444.56
2023-10-29T12:18:26.794Z,98453.38
2023-10-29T12:21:05.413Z,98449.22
2023-10-29T12:23:33.958Z,98454.50
2023-10-29T12:26:02.613Z,98459.88
2023-10-29T12:28:30.336Z,98445.19
2023-10-29T12:30:59.227Z,98448.03
2023-10-29T12:33:29.426Z,98452.75
2023-10-29T12:36:00.749Z,98437.63
2023-10-29T12:38:32.296Z,98432.81
2023-10-29T12:41:07.156Z,98422.13
2023-10-29T12:43:45.719Z,98428.66
2023-10-29T12:46:14.462Z,98421.19
2023-10-29T12:49:09.103Z,98412.66
2023-10-29T12:51:42.697Z,98417.00
2023-10-29T12:54:26.383Z,98409.69
2023-10-29T12:57:00.373Z,98413.84
2023-10-29T12:59:32.974Z,98411.44
2023-10-29T13:02:07.695Z,98408.78
2023-10-29T13:04:37.890Z,98425.13
2023-10-29T13:07:08.902Z,98424.00
2023-10-29T13:09:42.294Z,98416.09
2023-10-29T13:12:11.999Z,98411.03
2023-10-29T13:14:40.580Z,98413.75
2023-10-29T13:17:08.754Z,98424.66
2023-10-29T13:19:37.016Z,98420.13
2023-10-29T13:22:06.053Z,98426.25
2023-10-29T13:24:33.849Z,98418.53
2023-10-29T13:27:03.152Z,98430.00
2023-10-29T13:29:30.816Z,98410.25
2023-10-29T13:31:59.779Z,98420.38
2023-10-29T13:34:28.885Z,98411.81
2023-10-29T13:36:56.401Z,98410.03
2023-10-29T13:39:23.932Z,98415.94
2023-10-29T13:41:51.519Z,98417.00
2023-10-29T13:44:19.278Z,98425.59
2023-10-29T13:46:47.028Z,98422.53
2023-10-29T13:49:14.726Z,98410.84
2023-10-29T13:51:44.653Z,98406.13
2023-10-29T13:54:12.496Z,98407.41
2023-10-29T13:56:41.199Z,98419.19
2023-10-29T13:59:08.863Z,98408.38
2023-10-29T14:01:36.553Z,98415.31
2023-10-29T14:04:04.458Z,98415.16
2023-10-29T14:06:32.981Z,98414.16
2023-10-29T14:09:01.369Z,98421.53
2023-10-29T14:11:28.988Z,98426.59
2023-10-29T14:14:01.509Z,98421.34
2023-10-29T14:16:37.288Z,98416.00
2023-10-29T14:19:08.443Z,98406.03
2023-10-29T14:21:36.430Z,98415.41
2023-10-29T14:24:04.737Z,98419.97
2023-10-29T14:26:32.365Z,98412.91
2023-10-29T14:29:00.016Z,98408.72
2023-10-29T14:31:27.640Z,98409.44
2023-10-29T14:33:55.201Z,98410.72
2023-10-29T14:36:24.539Z,98410.75
2023-10-29T14:38:52.147Z,98405.06
2023-10-29T14:41:19.766Z,98402.84
2023-10-29T14:43:47.358Z,98405.84
2023-10-29T14:46:14.935Z,98415.03
2023-10-29T14:48:44.236Z,98414.78
2023-10-29T14:51:15.182Z,98420.22
2023-10-29T14:53:42.780Z,98416.97
2023-10-29T14:56:10.379Z,98418.69
2023-10-29T14:58:37.982Z,98413.19
2023-10-29T15:01:08.920Z,98413.75
2023-10-29T15:03:36.811Z,98415.88
2023-10-29T15:06:09.721Z,98414.19
2023-10-29T15:08:38.482Z,98412.91
2023-10-29T15:11:06.513Z,98410.63
2023-10-29T15:13:46.378Z,98413.81
2023-10-29T15:16:17.313Z,98414.41
2023-10-29T15:18:45.380Z,98413.34
2023-10-29T15:21:18.971Z,98410.41
2023-10-29T15:23:46.677Z,98415.56
2023-10-29T15:26:15.784Z,98408.50
2023-10-29T15:28:43.449Z,98409.13
2023-10-29T15:31:11.692Z,98399.94
2023-10-29T15:33:39.958Z,98403.75
2023-10-29T15:36:09.810Z,98404.56
2023-10-29T15:38:38.585Z,98408.91
2023-10-29T15:41:08.184Z,98409.19
2023-10-29T15:43:35.846Z,98408.38
2023-10-29T15:46:06.700Z,98420.16
2023-10-29T15:48:34.407Z,98419.38
2023-10-29T15:51:02.248Z,98423.66
2023-10-29T15:53:29.952Z,98427.19
2023-10-29T15:55:59.460Z,98432.03
2023-10-29T15:58:27.283Z,98436.06
2023-10-29T16:00:55.170Z,98438.50
2023-10-29T16:03:22.800Z,98434.72
2023-10-29T16:05:50.692Z,98440.06
2023-10-29T16:08:21.606Z,98444.34
2023-10-29T16:10:49.470Z,98443.44
2023-10-29T16:13:17.287Z,98444.56
2023-10-29T16:15:48.164Z,98441.09
2023-10-29T16:18:18.493Z,98449.16
2023-10-29T16:20:48.690Z,98444.88
2023-10-29T16:23:17.243Z,98441.88
2023-10-29T16:25:44.991Z,98444.56
2023-10-29T16:28:12.884Z,98443.53
2023-10-29T16:30:41.353Z,98434.84
2023-10-29T16:33:11.750Z,98435.94
2023-10-29T16:35:41.745Z,98436.25
2023-10-29T16:38:10.242Z,98439.63
2023-10-29T16:40:42.404Z,98443.09
2023-10-29T16:43:10.230Z,98440.94
2023-10-29T16:45:38.685Z,98454.47
2023-10-29T16:48:09.137Z,98451.25
2023-10-29T16:50:52.366Z,98455.03
2023-10-29T16:53:28.329Z,98450.47
2023-10-29T16:56:03.787Z,98458.34
2023-10-29T16:58:32.254Z,98447.31
2023-10-29T17:01:00.439Z,98460.44
2023-10-29T17:03:31.139Z,98458.13
2023-10-29T17:05:58.881Z,98468.06
2023-10-29T17:08:26.660Z,98467.19
2023-10-29T17:11:00.448Z,98473.53
2023-10-29T17:13:28.064Z,98471.16
2023-10-29T17:16:00.763Z,98476.31
2023-10-29T17:18:29.534Z,98479.38
2023-10-29T17:21:00.647Z,98469.78
2023-10-29T17:23:28.937Z,98474.84
2023-10-29T17:25:57.766Z,98477.94
2023-10-29T17:28:25.465Z,98472.06
2023-10-29T17:30:53.071Z,98481.31
2023-10-29T17:33:21.055Z,98488.03
2023-10-29T17:35:48.864Z,98471.84
2023-10-29T17:38:16.694Z,98477.66
2023-10-29T17:40:44.519Z,98485.38
2023-10-29T17:43:15.163Z,98477.34
2023-10-29T17:45:44.818Z,98474.97
2023-10-29T17:48:14.112Z,98484.75
2023-10-29T17:50:42.946Z,98484.88
2023-10-29T17:53:13.584Z,98481.59
2023-10-29T17:55:41.681Z,98489.72
2023-10-29T17:58:11.842Z,98469.22
2023-10-29T18:00:39.594Z,98471.69
2023-10-29T18:03:07.467Z,98477.34
2023-10-29T18:05:36.409Z,98479.81
2023-10-29T18:08:09.713Z,98471.84
2023-10-29T18:10:37.801Z,98468.50
2023-10-29T18:13:05.387Z,98468.69
2023-10-29T18:15:32.990Z,98468.38
2023-10-29T18:18:00.948Z,98476.09
2023-10-29T18:20:28.708Z,98468.00
2023-10-29T18:22:56.475Z,98471.56
2023-10-29T18:25:26.662Z,98470.50
2023-10-29T18:27:55.678Z,98478.94
2023-10-29T18:30:28.124Z,98470.97
2023-10-29T18:32:56.802Z,98468.19
2023-10-29T18:35:24.756Z,98468.00
2023-10-29T18:37:59.401Z,98469.06
2023-10-29T18:40:27.982Z,98468.75
2023-10-29T18:42:55.484Z,98478.44
2023-10-29T18:45:23.457Z,98477.78
2023-10-29T18:47:53.278Z,98472.88
2023-10-29T18:50:22.052Z,98471.34
2023-10-29T18:52:50.628Z,98468.38
2023-10-29T18:55:19.349Z,98469.38
2023-10-29T18:57:53.713Z,98470.59
2023-10-29T19:00:21.467Z,98471.31
2023-10-29T19:02:50.137Z,98470.41
2023-10-29T19:05:20.972Z,98467.31
2023-10-29T19:07:48.928Z,98474.91
2023-10-29T19:10:21.537Z,98464.50
2023-10-29T19:12:53.654Z,98470.31
2023-10-29T19:15:22.271Z,98460.28
2023-10-29T19:17:53.166Z,98466.69
2023-10-29T19:21:35.666Z,98451.94
2023-10-29T19:24:06.056Z,98461.63
2023-10-29T19:26:33.660Z,98452.84
2023-10-29T19:29:04.385Z,98458.88
2023-10-29T19:31:31.942Z,98460.59
2023-10-29T19:34:03.717Z,98467.09
2023-10-29T19:36:31.556Z,98466.88
2023-10-29T19:38:59.785Z,98472.00
2023-10-29T19:41:28.246Z,98469.19
2023-10-29T19:43:56.066Z,98478.59
2023-10-29T19:46:24.019Z,98471.16
2023-10-29T19:48:55.790Z,98469.91
2023-10-29T19:51:26.395Z,98479.81
2023-10-29T19:53:54.699Z,98483.59
2023-10-29T19:56:23.645Z,98483.38
2023-10-29T19:58:51.313Z,98480.28
2023-10-29T20:01:21.188Z,98469.59
2023-10-29T20:03:49.828Z,98466.50
2023-10-29T20:06:17.886Z,98467.13
2023-10-29T20:08:45.691Z,98475.81
2023-10-29T20:11:15.415Z,98478.19
2023-10-29T20:13:48.719Z,98470.59
2023-10-29T20:16:19.798Z,98470.53
2023-10-29T20:18:47.904Z,98456.34
2023-10-29T20:21:20.358Z,98461.44
2023-10-29T20:23:48.366Z,98451.28
2023-10-29T20:26:20.875Z,98459.06
2023-10-29T20:28:52.884Z,98464.06
2023-10-29T20:31:23.993Z,98473.66
2023-10-29T20:33:53.390Z,98475.22
2023-10-29T20:36:22.606Z,98466.91
2023-10-29T20:38:50.119Z,98472.75
2023-10-29T20:41:17.600Z,98476.38
2023-10-29T20:43:45.387Z,98477.16
2023-10-29T20:46:13.446Z,98474.72
2023-10-29T20:48:41.281Z,98481.03
2023-10-29T20:51:09.112Z,98482.22
2023-10-29T20:53:37.041Z,98474.41
2023-10-29T20:56:05.881Z,98482.47
2023-10-29T20:58:33.898Z,98479.38
2023-10-29T21:01:05.519Z,98469.50
2023-10-29T21:03:34.105Z,98467.88
2023-10-29T21:06:02.271Z,98474.28
2023-10-29T21:08:29.906Z,98468.28
2023-10-29T21:11:14.483Z,98475.38
2023-10-29T21:13:42.534Z,98475.09
2023-10-29T21:16:10.466Z,98474.81
2023-10-29T21:18:38.239Z,98475.09
2023-10-29T21:21:06.190Z,98474.06
2023-10-29T21:23:34.122Z,98480.94
2023-10-29T21:26:01.887Z,98491.00
2023-10-29T21:28:29.701Z,98479.75
2023-10-29T21:30:57.400Z,98481.91
2023-10-29T21:33:25.166Z,98489.41
2023-10-29T21:35:52.773Z,98489.28
2023-10-29T21:38:20.591Z,98486.25
2023-10-29T21:40:48.182Z,98482.50
2023-10-29T21:43:15.818Z,98485.00
2023-10-29T21:45:43.464Z,98489.03
2023-10-29T21:48:11.550Z,98494.97
2023-10-29T21:50:41.945Z,98497.94
2023-10-29T21:53:10.385Z,98493.09
2023-10-29T21:55:38.573Z,98503.69
2023-10-29T21:58:09.978Z,98505.06
2023-10-29T22:00:37.938Z,98503.78
2023-10-29T22:03:06.150Z,98504.56
2023-10-29T22:05:34.266Z,98507.72
2023-10-29T22:08:02.169Z,98500.88
2023-10-29T22:10:29.756Z,98499.66
2023-10-29T22:12:57.338Z,98499.09
2023-10-29T22:15:29.317Z,98497.78
2023-10-29T22:17:57.011Z,98494.78
2023-10-29T22:20:25.407Z,98493.03
2023-10-29T22:22:52.975Z,98493.03
2023-10-29T22:25:20.602Z,98489.59
2023-10-29T22:27:48.134Z,98486.16
2023-10-29T22:30:15.823Z,98486.59
2023-10-29T22:32:43.956Z,98484.09
2023-10-29T22:35:11.662Z,98484.53
2023-10-29T22:37:39.504Z,98483.59
2023-10-29T22:40:07.647Z,98487.97
2023-10-29T22:42:35.320Z,98480.59
2023-10-29T22:45:02.980Z,98480.44
2023-10-29T22:47:30.614Z,98485.53
2023-10-29T22:49:58.204Z,98478.22
2023-10-29T22:52:25.742Z,98485.97
2023-10-29T22:54:53.487Z,98490.31
2023-10-29T22:57:21.078Z,98490.34
2023-10-29T22:59:51.668Z,98486.81
2023-10-29T23:02:19.956Z,98483.94
2023-10-29T23:04:47.657Z,98482.09
2023-10-29T23:07:15.197Z,98493.47
2023-10-29T23:09:42.853Z,98488.03
2023-10-29T23:12:10.494Z,98491.16
2023-10-29T23:14:38.063Z,98485.03
2023-10-29T23:17:05.688Z,98484.09
2023-10-29T23:19:33.244Z,98479.63
2023-10-29T23:22:00.764Z,98483.84
2023-10-29T23:24:28.441Z,98481.19
2023-10-29T23:26:56.022Z,98486.69
2023-10-29T23:29:23.910Z,98491.97
2023-10-29T23:31:51.498Z,98486.97
2023-10-29T23:34:19.079Z,98484.09
2023-10-29T23:36:46.656Z,98493.03
2023-10-29T23:39:14.334Z,98492.69
2023-10-29T23:41:41.871Z,98496.81
2023-10-29T23:44:09.336Z,98495.53
2023-10-29T23:46:36.889Z,98492.41
2023-10-29T23:49:04.990Z,98489.47
2023-10-29T23:51:32.568Z,98495.88
2023-10-29T23:54:00.231Z,98496.81
2023-10-29T23:56:27.802Z,98495.47
2023-10-29T23:58:55.345Z,98490.59
